Santa Fe, NM (87594)

5:46 AM MDT on September 04, 2015 (GMT -0600)
Tesuque Fire District | | Change Station
CLOSE
Current Station
Personal Weather Station
Location: Tesuque, NM
Elevation: 6608 ft
Nearby Weather Stations

Elev 6608 ft 35.78 °N, 105.95 °W | Updated 5 minutes ago

Overcast
Overcast
59.1 °F
Feels Like 59.1 °F
N
0.0
Wind Variable Wind from NW
Gusts 0.0 mph

Today
High -- | Low -- °F
--% Chance of Precip.
Yesterday
High -- | Low -- °F
Precip. -- in
6:38 AM 7:27 PM
Waning Gibbous, 60% visible
Pressure 29.80 in
Visibility 10.0 miles
Clouds Overcast 10000 ft
Dew Point 47 °F
Humidity 65%
Rainfall 0.00 in
Snow Depth Not available.
UV 0 out of 12
Pollen 6.20 out of 12
Air Quality Not available.
Flu Activity Not available.
METAR KSAF 041053Z AUTO 03003KT 10SM OVC100 16/07 A3013 RMK AO2 SLP091 T01610067
Pressure 29.80 in
Visibility 10.0 miles
Clouds Overcast 10000 ft
Dew Point 47 °F
Humidity 65%
Rainfall 0.00 in
Snow Depth Not available.
UV 0 out of 12
Pollen 6.20 out of 12
Air Quality Not available.
Flu Activity Not available.
METAR KSAF 041053Z AUTO 03003KT 10SM OVC100 16/07 A3013 RMK AO2 SLP091 T01610067

10-Day Weather Forecast

×

Almanac

Astronomy

Sep. 04, 2015 Rise Set
Actual Time
Civil Twilight
Nautical Twilight
Astronomical Twilight
Moon
Length of Visible Light
Length of Day
Tomorrow will be .
, % of the Moon is Illuminated

Today's Extremes

State Highs State Lows

Community

WunderPhotos

Upload Photos

1,852,157 photos uploaded!

WunderBlogs® & News

Nearby

Air Quality

  Air Quality AQ Index Pollutant
Not available.

Snow Depth

Station Depth Elevation

Earthquake Activity

City Distance Mag. Time & Date
Minimum magnitude displayed is 2.5.

Coastal Water Temperatures

Place Temperature

Stations

Nearby Weather Stations

Station Location Temp. Windchill Dew Point Humidity Wind Precip. Elev Updated Type